sensor_id;sensor_type;location;lat;lon;timestamp;temperature;humidity
25248;DHT22;13191;47.472;11.214;2022-10-16T00:01:14;10.10;99.90
25248;DHT22;13191;47.472;11.214;2022-10-16T00:03:40;10.10;99.90
25248;DHT22;13191;47.472;11.214;2022-10-16T00:06:06;10.10;99.90
25248;DHT22;13191;47.472;11.214;2022-10-16T00:08:32;10.10;99.90
25248;DHT22;13191;47.472;11.214;2022-10-16T00:10:59;10.10;99.90
25248;DHT22;13191;47.472;11.214;2022-10-16T00:13:24;10.20;99.90
25248;DHT22;13191;47.472;11.214;2022-10-16T00:15:49;10.20;99.90
25248;DHT22;13191;47.472;11.214;2022-10-16T00:18:15;10.20;99.90
25248;DHT22;13191;47.472;11.214;2022-10-16T00:20:40;10.20;99.90
25248;DHT22;13191;47.472;11.214;2022-10-16T00:23:06;10.20;99.90
25248;DHT22;13191;47.472;11.214;2022-10-16T00:25:32;10.20;99.90
25248;DHT22;13191;47.472;11.214;2022-10-16T00:27:58;10.20;99.90
25248;DHT22;13191;47.472;11.214;2022-10-16T00:30:24;10.20;99.90
25248;DHT22;13191;47.472;11.214;2022-10-16T00:32:52;10.20;99.90
25248;DHT22;13191;47.472;11.214;2022-10-16T00:35:17;10.20;99.90
25248;DHT22;13191;47.472;11.214;2022-10-16T00:37:42;10.20;99.90
25248;DHT22;13191;47.472;11.214;2022-10-16T00:40:08;10.20;99.90
25248;DHT22;13191;47.472;11.214;2022-10-16T00:42:34;10.20;99.90
25248;DHT22;13191;47.472;11.214;2022-10-16T00:45:00;10.20;99.90
25248;DHT22;13191;47.472;11.214;2022-10-16T00:47:29;10.20;99.90
25248;DHT22;13191;47.472;11.214;2022-10-16T00:49:57;10.30;99.90
25248;DHT22;13191;47.472;11.214;2022-10-16T00:52:23;10.30;99.90
25248;DHT22;13191;47.472;11.214;2022-10-16T00:54:49;10.30;99.90
25248;DHT22;13191;47.472;11.214;2022-10-16T00:57:15;10.30;99.90
25248;DHT22;13191;47.472;11.214;2022-10-16T00:59:41;10.30;99.90
25248;DHT22;13191;47.472;11.214;2022-10-16T01:02:07;10.40;99.90
25248;DHT22;13191;47.472;11.214;2022-10-16T01:04:35;10.40;99.90
25248;DHT22;13191;47.472;11.214;2022-10-16T01:14:46;10.40;99.90
25248;DHT22;13191;47.472;11.214;2022-10-16T01:17:14;10.40;99.90
25248;DHT22;13191;47.472;11.214;2022-10-16T01:22:06;10.40;99.90
25248;DHT22;13191;47.472;11.214;2022-10-16T01:24:40;10.40;99.90
25248;DHT22;13191;47.472;11.214;2022-10-16T01:29:54;10.40;99.90
25248;DHT22;13191;47.472;11.214;2022-10-16T01:32:26;10.30;99.90
25248;DHT22;13191;47.472;11.214;2022-10-16T01:37:39;10.30;99.90
25248;DHT22;13191;47.472;11.214;2022-10-16T01:40:07;10.30;99.90
25248;DHT22;13191;47.472;11.214;2022-10-16T01:42:48;10.30;99.90
25248;DHT22;13191;47.472;11.214;2022-10-16T01:45:15;10.30;99.90
25248;DHT22;13191;47.472;11.214;2022-10-16T01:47:43;10.30;99.90
25248;DHT22;13191;47.472;11.214;2022-10-16T01:50:09;10.30;99.90
25248;DHT22;13191;47.472;11.214;2022-10-16T01:52:35;10.20;99.90
25248;DHT22;13191;47.472;11.214;2022-10-16T01:55:03;10.20;99.90
25248;DHT22;13191;47.472;11.214;2022-10-16T01:57:29;10.30;99.90
25248;DHT22;13191;47.472;11.214;2022-10-16T01:59:56;10.30;99.90
25248;DHT22;13191;47.472;11.214;2022-10-16T02:02:23;10.30;99.90
25248;DHT22;13191;47.472;11.214;2022-10-16T02:05:03;10.30;99.90
25248;DHT22;13191;47.472;11.214;2022-10-16T02:07:30;10.30;99.90
25248;DHT22;13191;47.472;11.214;2022-10-16T02:09:55;10.30;99.90
25248;DHT22;13191;47.472;11.214;2022-10-16T02:12:24;10.30;99.90
25248;DHT22;13191;47.472;11.214;2022-10-16T02:14:50;10.30;99.90
25248;DHT22;13191;47.472;11.214;2022-10-16T02:17:16;10.30;99.90
25248;DHT22;13191;47.472;11.214;2022-10-16T02:19:42;10.30;99.90
25248;DHT22;13191;47.472;11.214;2022-10-16T02:22:09;10.30;99.90
25248;DHT22;13191;47.472;11.214;2022-10-16T02:24:39;10.30;99.90
25248;DHT22;13191;47.472;11.214;2022-10-16T02:27:13;10.30;99.90
25248;DHT22;13191;47.472;11.214;2022-10-16T02:29:43;10.30;99.90
25248;DHT22;13191;47.472;11.214;2022-10-16T02:32:15;10.30;99.90
25248;DHT22;13191;47.472;11.214;2022-10-16T02:34:42;10.30;99.90
25248;DHT22;13191;47.472;11.214;2022-10-16T02:37:08;10.30;99.90
25248;DHT22;13191;47.472;11.214;2022-10-16T02:39:35;10.30;99.90
25248;DHT22;13191;47.472;11.214;2022-10-16T02:42:02;10.30;99.90
25248;DHT22;13191;47.472;11.214;2022-10-16T02:44:27;10.30;99.90
25248;DHT22;13191;47.472;11.214;2022-10-16T02:46:53;10.30;99.90
25248;DHT22;13191;47.472;11.214;2022-10-16T02:49:18;10.20;99.90
25248;DHT22;13191;47.472;11.214;2022-10-16T02:51:44;10.30;99.90
25248;DHT22;13191;47.472;11.214;2022-10-16T02:54:09;10.30;99.90
25248;DHT22;13191;47.472;11.214;2022-10-16T02:56:35;10.20;99.90
25248;DHT22;13191;47.472;11.214;2022-10-16T02:59:00;10.30;99.90
25248;DHT22;13191;47.472;11.214;2022-10-16T03:01:26;10.30;99.90
25248;DHT22;13191;47.472;11.214;2022-10-16T03:03:51;10.40;99.90
25248;DHT22;13191;47.472;11.214;2022-10-16T03:06:17;10.40;99.90
25248;DHT22;13191;47.472;11.214;2022-10-16T03:08:42;10.40;99.90
25248;DHT22;13191;47.472;11.214;2022-10-16T03:11:07;10.40;99.90
25248;DHT22;13191;47.472;11.214;2022-10-16T03:13:33;10.30;99.90
25248;DHT22;13191;47.472;11.214;2022-10-16T03:15:58;10.30;99.90
25248;DHT22;13191;47.472;11.214;2022-10-16T03:18:24;10.30;99.90
25248;DHT22;13191;47.472;11.214;2022-10-16T03:20:49;10.30;99.90
25248;DHT22;13191;47.472;11.214;2022-10-16T03:23:15;10.30;99.90
25248;DHT22;13191;47.472;11.214;2022-10-16T03:25:40;10.20;99.90
25248;DHT22;13191;47.472;11.214;2022-10-16T03:28:06;10.20;99.90
25248;DHT22;13191;47.472;11.214;2022-10-16T03:30:31;10.20;99.90
25248;DHT22;13191;47.472;11.214;2022-10-16T03:32:57;10.20;99.90
25248;DHT22;13191;47.472;11.214;2022-10-16T03:35:23;10.20;99.90
25248;DHT22;13191;47.472;11.214;2022-10-16T03:37:49;10.20;99.90
25248;DHT22;13191;47.472;11.214;2022-10-16T03:40:15;10.20;99.90
25248;DHT22;13191;47.472;11.214;2022-10-16T03:42:42;10.20;99.90
25248;DHT22;13191;47.472;11.214;2022-10-16T03:45:07;10.10;99.90
25248;DHT22;13191;47.472;11.214;2022-10-16T03:47:33;10.20;99.90
25248;DHT22;13191;47.472;11.214;2022-10-16T03:49:59;10.20;99.90
25248;DHT22;13191;47.472;11.214;2022-10-16T03:52:24;10.20;99.90
25248;DHT22;13191;47.472;11.214;2022-10-16T03:54:50;10.20;99.90
25248;DHT22;13191;47.472;11.214;2022-10-16T03:57:16;10.10;99.90
25248;DHT22;13191;47.472;11.214;2022-10-16T03:59:41;10.10;99.90
25248;DHT22;13191;47.472;11.214;2022-10-16T04:02:07;10.10;99.90
25248;DHT22;13191;47.472;11.214;2022-10-16T04:04:32;10.10;99.90
25248;DHT22;13191;47.472;11.214;2022-10-16T04:06:58;10.10;99.90
25248;DHT22;13191;47.472;11.214;2022-10-16T04:09:23;10.20;99.90
25248;DHT22;13191;47.472;11.214;2022-10-16T04:11:49;10.20;99.90
25248;DHT22;13191;47.472;11.214;2022-10-16T04:14:14;10.10;99.90
25248;DHT22;13191;47.472;11.214;2022-10-16T04:16:40;10.10;99.90
25248;DHT22;13191;47.472;11.214;2022-10-16T04:19:05;10.20;99.90
25248;DHT22;13191;47.472;11.214;2022-10-16T04:21:30;10.20;99.90
25248;DHT22;13191;47.472;11.214;2022-10-16T04:23:56;10.20;99.90
25248;DHT22;13191;47.472;11.214;2022-10-16T04:26:21;10.30;99.90
25248;DHT22;13191;47.472;11.214;2022-10-16T04:28:47;10.20;99.90
25248;DHT22;13191;47.472;11.214;2022-10-16T04:31:12;10.30;99.90
25248;DHT22;13191;47.472;11.214;2022-10-16T04:33:38;10.30;99.90
25248;DHT22;13191;47.472;11.214;2022-10-16T04:36:03;10.40;99.90
25248;DHT22;13191;47.472;11.214;2022-10-16T04:38:29;10.40;99.90
25248;DHT22;13191;47.472;11.214;2022-10-16T04:40:55;10.40;99.90
25248;DHT22;13191;47.472;11.214;2022-10-16T04:43:20;10.40;99.90
25248;DHT22;13191;47.472;11.214;2022-10-16T04:45:46;10.30;99.90
25248;DHT22;13191;47.472;11.214;2022-10-16T04:48:11;10.30;99.90
25248;DHT22;13191;47.472;11.214;2022-10-16T04:50:37;10.30;99.90
25248;DHT22;13191;47.472;11.214;2022-10-16T04:53:02;10.30;99.90
25248;DHT22;13191;47.472;11.214;2022-10-16T04:55:29;10.40;99.90
25248;DHT22;13191;47.472;11.214;2022-10-16T04:57:54;10.40;99.90
25248;DHT22;13191;47.472;11.214;2022-10-16T05:00:20;10.40;99.90
25248;DHT22;13191;47.472;11.214;2022-10-16T05:02:46;10.30;99.90
25248;DHT22;13191;47.472;11.214;2022-10-16T05:05:11;10.30;99.90
25248;DHT22;13191;47.472;11.214;2022-10-16T05:07:37;10.40;99.90
25248;DHT22;13191;47.472;11.214;2022-10-16T05:10:02;10.30;99.90
25248;DHT22;13191;47.472;11.214;2022-10-16T05:12:28;10.30;99.90
25248;DHT22;13191;47.472;11.214;2022-10-16T05:14:54;10.30;99.90
25248;DHT22;13191;47.472;11.214;2022-10-16T05:17:24;10.30;99.90
25248;DHT22;13191;47.472;11.214;2022-10-16T05:19:50;10.30;99.90
25248;DHT22;13191;47.472;11.214;2022-10-16T05:22:15;10.30;99.90
25248;DHT22;13191;47.472;11.214;2022-10-16T05:24:40;10.30;99.90
25248;DHT22;13191;47.472;11.214;2022-10-16T05:27:06;10.30;99.90
25248;DHT22;13191;47.472;11.214;2022-10-16T05:29:31;10.30;99.90
25248;DHT22;13191;47.472;11.214;2022-10-16T05:31:57;10.20;99.90
25248;DHT22;13191;47.472;11.214;2022-10-16T05:34:22;10.20;99.90
25248;DHT22;13191;47.472;11.214;2022-10-16T05:36:48;10.20;99.90
25248;DHT22;13191;47.472;11.214;2022-10-16T05:39:14;10.30;99.90
25248;DHT22;13191;47.472;11.214;2022-10-16T05:41:40;10.20;99.90
25248;DHT22;13191;47.472;11.214;2022-10-16T05:44:06;10.10;99.90
25248;DHT22;13191;47.472;11.214;2022-10-16T05:46:32;10.10;99.90
25248;DHT22;13191;47.472;11.214;2022-10-16T05:48:57;10.00;99.90
25248;DHT22;13191;47.472;11.214;2022-10-16T05:51:23;10.10;99.90
25248;DHT22;13191;47.472;11.214;2022-10-16T05:53:48;10.10;99.90
25248;DHT22;13191;47.472;11.214;2022-10-16T05:56:14;10.10;99.90
25248;DHT22;13191;47.472;11.214;2022-10-16T05:58:40;10.10;99.90
25248;DHT22;13191;47.472;11.214;2022-10-16T06:01:07;10.00;99.90
25248;DHT22;13191;47.472;11.214;2022-10-16T06:03:33;10.10;99.90
25248;DHT22;13191;47.472;11.214;2022-10-16T06:05:59;10.10;99.90
25248;DHT22;13191;47.472;11.214;2022-10-16T06:08:24;10.10;99.90
25248;DHT22;13191;47.472;11.214;2022-10-16T06:11:02;10.10;99.90
25248;DHT22;13191;47.472;11.214;2022-10-16T06:13:28;10.20;99.90
25248;DHT22;13191;47.472;11.214;2022-10-16T06:15:56;10.10;99.90
25248;DHT22;13191;47.472;11.214;2022-10-16T06:18:21;10.10;99.90
25248;DHT22;13191;47.472;11.214;2022-10-16T06:20:47;10.20;99.90
25248;DHT22;13191;47.472;11.214;2022-10-16T06:23:12;10.20;99.90
25248;DHT22;13191;47.472;11.214;2022-10-16T06:25:38;10.30;99.90
25248;DHT22;13191;47.472;11.214;2022-10-16T06:28:03;10.30;99.90
25248;DHT22;13191;47.472;11.214;2022-10-16T06:30:29;10.30;99.90
25248;DHT22;13191;47.472;11.214;2022-10-16T06:32:54;10.10;99.90
25248;DHT22;13191;47.472;11.214;2022-10-16T06:35:20;10.20;99.90
25248;DHT22;13191;47.472;11.214;2022-10-16T06:37:45;10.20;99.90
25248;DHT22;13191;47.472;11.214;2022-10-16T06:40:11;10.30;99.90
25248;DHT22;13191;47.472;11.214;2022-10-16T06:42:36;10.30;99.90
25248;DHT22;13191;47.472;11.214;2022-10-16T06:45:02;10.40;99.90
25248;DHT22;13191;47.472;11.214;2022-10-16T06:47:27;10.40;99.90
25248;DHT22;13191;47.472;11.214;2022-10-16T06:49:53;10.50;99.90
25248;DHT22;13191;47.472;11.214;2022-10-16T06:52:18;10.50;99.90
25248;DHT22;13191;47.472;11.214;2022-10-16T06:54:44;10.60;99.90
25248;DHT22;13191;47.472;11.214;2022-10-16T06:57:09;10.60;99.90
25248;DHT22;13191;47.472;11.214;2022-10-16T06:59:35;10.70;99.90
25248;DHT22;13191;47.472;11.214;2022-10-16T07:02:00;10.80;99.90
25248;DHT22;13191;47.472;11.214;2022-10-16T07:04:26;10.90;99.90
25248;DHT22;13191;47.472;11.214;2022-10-16T07:06:51;10.90;99.90
25248;DHT22;13191;47.472;11.214;2022-10-16T07:09:17;11.00;99.90
25248;DHT22;13191;47.472;11.214;2022-10-16T07:11:42;11.10;99.90
25248;DHT22;13191;47.472;11.214;2022-10-16T07:14:15;11.10;99.90
25248;DHT22;13191;47.472;11.214;2022-10-16T07:16:41;11.20;99.90
25248;DHT22;13191;47.472;11.214;2022-10-16T07:19:07;11.30;99.90
25248;DHT22;13191;47.472;11.214;2022-10-16T07:21:33;11.30;99.90
25248;DHT22;13191;47.472;11.214;2022-10-16T07:24:02;11.40;99.90
25248;DHT22;13191;47.472;11.214;2022-10-16T07:26:30;11.60;99.90
25248;DHT22;13191;47.472;11.214;2022-10-16T07:28:56;11.70;99.90
25248;DHT22;13191;47.472;11.214;2022-10-16T07:31:22;11.70;99.90
25248;DHT22;13191;47.472;11.214;2022-10-16T07:33:48;11.80;99.90
25248;DHT22;13191;47.472;11.214;2022-10-16T07:36:14;11.90;99.90
25248;DHT22;13191;47.472;11.214;2022-10-16T07:38:41;11.90;99.90
25248;DHT22;13191;47.472;11.214;2022-10-16T07:41:08;12.00;99.90
25248;DHT22;13191;47.472;11.214;2022-10-16T07:43:34;12.20;99.90
25248;DHT22;13191;47.472;11.214;2022-10-16T07:46:00;12.30;99.90
25248;DHT22;13191;47.472;11.214;2022-10-16T07:48:29;12.40;99.90
25248;DHT22;13191;47.472;11.214;2022-10-16T07:50:58;12.50;99.90
25248;DHT22;13191;47.472;11.214;2022-10-16T07:53:24;12.70;99.90
25248;DHT22;13191;47.472;11.214;2022-10-16T07:55:50;12.80;99.90
25248;DHT22;13191;47.472;11.214;2022-10-16T07:58:15;12.90;99.90
25248;DHT22;13191;47.472;11.214;2022-10-16T08:00:40;13.00;99.90
25248;DHT22;13191;47.472;11.214;2022-10-16T08:03:06;13.10;99.90
25248;DHT22;13191;47.472;11.214;2022-10-16T08:05:32;13.10;99.90
25248;DHT22;13191;47.472;11.214;2022-10-16T08:07:58;13.20;99.90
25248;DHT22;13191;47.472;11.214;2022-10-16T08:10:24;13.30;99.90
25248;DHT22;13191;47.472;11.214;2022-10-16T08:12:50;13.40;99.90
25248;DHT22;13191;47.472;11.214;2022-10-16T08:15:16;13.40;99.90
25248;DHT22;13191;47.472;11.214;2022-10-16T08:17:41;13.50;99.90
25248;DHT22;13191;47.472;11.214;2022-10-16T08:20:07;13.50;99.90
25248;DHT22;13191;47.472;11.214;2022-10-16T08:22:33;13.60;99.90
25248;DHT22;13191;47.472;11.214;2022-10-16T08:24:58;13.70;99.90
25248;DHT22;13191;47.472;11.214;2022-10-16T08:27:24;13.70;99.90
25248;DHT22;13191;47.472;11.214;2022-10-16T08:29:49;13.80;99.90
25248;DHT22;13191;47.472;11.214;2022-10-16T08:32:15;13.80;99.90
25248;DHT22;13191;47.472;11.214;2022-10-16T08:34:40;14.00;99.90
25248;DHT22;13191;47.472;11.214;2022-10-16T08:37:06;14.00;99.90
25248;DHT22;13191;47.472;11.214;2022-10-16T08:39:33;14.10;99.90
25248;DHT22;13191;47.472;11.214;2022-10-16T08:44:53;14.30;99.90
25248;DHT22;13191;47.472;11.214;2022-10-16T08:47:35;14.30;99.90
25248;DHT22;13191;47.472;11.214;2022-10-16T08:50:14;14.40;99.90
25248;DHT22;13191;47.472;11.214;2022-10-16T08:52:43;14.50;99.90
25248;DHT22;13191;47.472;11.214;2022-10-16T08:55:28;14.70;99.90
25248;DHT22;13191;47.472;11.214;2022-10-16T08:57:55;14.80;99.90
25248;DHT22;13191;47.472;11.214;2022-10-16T09:00:20;14.80;99.90
25248;DHT22;13191;47.472;11.214;2022-10-16T09:02:53;14.90;99.90
25248;DHT22;13191;47.472;11.214;2022-10-16T09:08:09;15.10;99.90
25248;DHT22;13191;47.472;11.214;2022-10-16T09:10:58;15.20;99.90
25248;DHT22;13191;47.472;11.214;2022-10-16T09:13:27;15.30;99.90
25248;DHT22;13191;47.472;11.214;2022-10-16T09:18:34;15.60;99.90
25248;DHT22;13191;47.472;11.214;2022-10-16T09:21:05;15.70;99.90
25248;DHT22;13191;47.472;11.214;2022-10-16T09:23:37;15.70;99.90
25248;DHT22;13191;47.472;11.214;2022-10-16T09:26:03;15.80;99.90
25248;DHT22;13191;47.472;11.214;2022-10-16T09:28:29;16.00;99.90
25248;DHT22;13191;47.472;11.214;2022-10-16T09:30:54;16.00;99.90
25248;DHT22;13191;47.472;11.214;2022-10-16T09:33:28;16.10;99.90
25248;DHT22;13191;47.472;11.214;2022-10-16T09:35:55;16.20;99.90
25248;DHT22;13191;47.472;11.214;2022-10-16T09:38:31;16.30;99.90
25248;DHT22;13191;47.472;11.214;2022-10-16T09:40:58;16.30;99.90
25248;DHT22;13191;47.472;11.214;2022-10-16T09:45:57;16.50;99.90
25248;DHT22;13191;47.472;11.214;2022-10-16T09:48:23;16.60;99.90
25248;DHT22;13191;47.472;11.214;2022-10-16T09:50:57;16.70;99.90
25248;DHT22;13191;47.472;11.214;2022-10-16T09:53:22;16.70;99.90
25248;DHT22;13191;47.472;11.214;2022-10-16T09:55:48;16.90;99.90
25248;DHT22;13191;47.472;11.214;2022-10-16T09:58:15;17.00;99.90
25248;DHT22;13191;47.472;11.214;2022-10-16T10:00:41;17.00;99.90
25248;DHT22;13191;47.472;11.214;2022-10-16T10:03:15;17.10;99.90
25248;DHT22;13191;47.472;11.214;2022-10-16T10:05:49;17.10;99.90
25248;DHT22;13191;47.472;11.214;2022-10-16T10:08:16;17.20;99.90
25248;DHT22;13191;47.472;11.214;2022-10-16T10:10:43;17.30;99.90
25248;DHT22;13191;47.472;11.214;2022-10-16T10:13:21;17.30;99.90
25248;DHT22;13191;47.472;11.214;2022-10-16T10:15:47;17.40;99.90
25248;DHT22;13191;47.472;11.214;2022-10-16T10:18:17;17.40;99.90
25248;DHT22;13191;47.472;11.214;2022-10-16T10:20:43;17.50;99.90
25248;DHT22;13191;47.472;11.214;2022-10-16T10:23:42;17.60;99.90
25248;DHT22;13191;47.472;11.214;2022-10-16T10:26:09;17.70;99.90
25248;DHT22;13191;47.472;11.214;2022-10-16T10:28:45;17.80;99.90
25248;DHT22;13191;47.472;11.214;2022-10-16T10:31:14;17.90;99.90
25248;DHT22;13191;47.472;11.214;2022-10-16T10:33:59;18.00;99.90
25248;DHT22;13191;47.472;11.214;2022-10-16T10:36:27;18.10;99.90
25248;DHT22;13191;47.472;11.214;2022-10-16T10:46:32;18.40;99.90
25248;DHT22;13191;47.472;11.214;2022-10-16T10:49:10;18.50;99.90
25248;DHT22;13191;47.472;11.214;2022-10-16T10:51:48;18.50;99.90
25248;DHT22;13191;47.472;11.214;2022-10-16T10:54:27;18.60;99.90
25248;DHT22;13191;47.472;11.214;2022-10-16T10:57:02;18.70;99.90
25248;DHT22;13191;47.472;11.214;2022-10-16T11:02:19;18.80;99.90
25248;DHT22;13191;47.472;11.214;2022-10-16T11:07:32;19.00;99.90
25248;DHT22;13191;47.472;11.214;2022-10-16T11:10:03;19.20;99.90
25248;DHT22;13191;47.472;11.214;2022-10-16T11:12:35;19.30;99.90
25248;DHT22;13191;47.472;11.214;2022-10-16T11:17:28;19.60;99.90
25248;DHT22;13191;47.472;11.214;2022-10-16T11:20:02;19.70;99.90
25248;DHT22;13191;47.472;11.214;2022-10-16T11:22:31;19.70;99.90
25248;DHT22;13191;47.472;11.214;2022-10-16T11:30:04;20.10;99.90
25248;DHT22;13191;47.472;11.214;2022-10-16T11:32:32;20.20;99.90
25248;DHT22;13191;47.472;11.214;2022-10-16T11:35:05;20.40;99.90
25248;DHT22;13191;47.472;11.214;2022-10-16T11:37:36;20.50;99.90
25248;DHT22;13191;47.472;11.214;2022-10-16T11:40:22;20.60;99.90
25248;DHT22;13191;47.472;11.214;2022-10-16T11:42:51;20.70;99.90
25248;DHT22;13191;47.472;11.214;2022-10-16T11:45:41;20.80;99.90
25248;DHT22;13191;47.472;11.214;2022-10-16T11:48:14;20.90;99.90
25248;DHT22;13191;47.472;11.214;2022-10-16T11:50:43;21.00;99.90
25248;DHT22;13191;47.472;11.214;2022-10-16T11:53:13;21.10;99.90
25248;DHT22;13191;47.472;11.214;2022-10-16T11:55:42;21.30;99.90
25248;DHT22;13191;47.472;11.214;2022-10-16T11:58:12;21.40;99.90
25248;DHT22;13191;47.472;11.214;2022-10-16T12:00:44;21.50;99.90
25248;DHT22;13191;47.472;11.214;2022-10-16T12:03:28;21.60;99.90
25248;DHT22;13191;47.472;11.214;2022-10-16T12:06:18;21.70;99.90
25248;DHT22;13191;47.472;11.214;2022-10-16T12:08:47;21.80;99.90
25248;DHT22;13191;47.472;11.214;2022-10-16T12:11:23;21.90;99.90
25248;DHT22;13191;47.472;11.214;2022-10-16T12:13:49;22.00;99.90
25248;DHT22;13191;47.472;11.214;2022-10-16T12:18:40;22.20;99.90
25248;DHT22;13191;47.472;11.214;2022-10-16T12:21:06;22.30;99.90
25248;DHT22;13191;47.472;11.214;2022-10-16T12:23:33;22.40;99.90
25248;DHT22;13191;47.472;11.214;2022-10-16T12:26:01;22.50;99.90
25248;DHT22;13191;47.472;11.214;2022-10-16T12:28:37;22.60;99.90
25248;DHT22;13191;47.472;11.214;2022-10-16T12:31:09;22.70;99.90
25248;DHT22;13191;47.472;11.214;2022-10-16T12:33:41;22.80;99.90
25248;DHT22;13191;47.472;11.214;2022-10-16T12:36:10;22.90;99.90
25248;DHT22;13191;47.472;11.214;2022-10-16T12:41:09;23.10;99.90
25248;DHT22;13191;47.472;11.214;2022-10-16T12:43:37;23.10;99.90
25248;DHT22;13191;47.472;11.214;2022-10-16T12:48:35;23.30;99.90
25248;DHT22;13191;47.472;11.214;2022-10-16T12:51:12;23.50;99.90
25248;DHT22;13191;47.472;11.214;2022-10-16T12:53:37;23.60;99.90
25248;DHT22;13191;47.472;11.214;2022-10-16T12:56:04;23.70;99.90
25248;DHT22;13191;47.472;11.214;2022-10-16T13:01:12;23.90;99.90
25248;DHT22;13191;47.472;11.214;2022-10-16T13:17:03;24.70;99.90
25248;DHT22;13191;47.472;11.214;2022-10-16T13:32:49;25.70;99.90
25248;DHT22;13191;47.472;11.214;2022-10-16T13:35:25;25.90;99.90
25248;DHT22;13191;47.472;11.214;2022-10-16T13:38:02;26.10;99.90
25248;DHT22;13191;47.472;11.214;2022-10-16T13:40:28;26.20;99.90
25248;DHT22;13191;47.472;11.214;2022-10-16T13:42:53;26.40;99.90
25248;DHT22;13191;47.472;11.214;2022-10-16T13:45:28;26.50;99.90
25248;DHT22;13191;47.472;11.214;2022-10-16T13:48:03;26.50;99.90
25248;DHT22;13191;47.472;11.214;2022-10-16T13:50:29;26.70;99.90
25248;DHT22;13191;47.472;11.214;2022-10-16T13:53:04;26.80;99.90
25248;DHT22;13191;47.472;11.214;2022-10-16T13:55:30;27.00;99.90
25248;DHT22;13191;47.472;11.214;2022-10-16T13:58:04;27.30;99.90
25248;DHT22;13191;47.472;11.214;2022-10-16T14:00:30;27.40;99.90
25248;DHT22;13191;47.472;11.214;2022-10-16T14:02:58;27.50;99.90
25248;DHT22;13191;47.472;11.214;2022-10-16T14:05:26;27.60;99.90
25248;DHT22;13191;47.472;11.214;2022-10-16T14:07:51;27.70;99.90
25248;DHT22;13191;47.472;11.214;2022-10-16T14:10:19;27.80;99.90
25248;DHT22;13191;47.472;11.214;2022-10-16T14:15:18;28.10;99.90
25248;DHT22;13191;47.472;11.214;2022-10-16T14:17:44;28.10;99.90
25248;DHT22;13191;47.472;11.214;2022-10-16T14:20:14;28.30;99.90
25248;DHT22;13191;47.472;11.214;2022-10-16T14:22:40;28.40;99.90
25248;DHT22;13191;47.472;11.214;2022-10-16T14:27:44;28.40;99.90
25248;DHT22;13191;47.472;11.214;2022-10-16T14:30:21;28.40;99.90
25248;DHT22;13191;47.472;11.214;2022-10-16T14:33:00;28.50;99.90
25248;DHT22;13191;47.472;11.214;2022-10-16T14:35:34;28.60;99.90
25248;DHT22;13191;47.472;11.214;2022-10-16T14:38:00;28.60;99.90
25248;DHT22;13191;47.472;11.214;2022-10-16T14:40:27;28.60;99.90
25248;DHT22;13191;47.472;11.214;2022-10-16T14:42:53;28.70;99.90
25248;DHT22;13191;47.472;11.214;2022-10-16T14:45:23;28.70;99.90
25248;DHT22;13191;47.472;11.214;2022-10-16T14:47:54;28.70;99.90
25248;DHT22;13191;47.472;11.214;2022-10-16T14:50:20;28.70;99.90
25248;DHT22;13191;47.472;11.214;2022-10-16T14:52:46;28.80;99.90
25248;DHT22;13191;47.472;11.214;2022-10-16T14:55:11;28.60;99.90
25248;DHT22;13191;47.472;11.214;2022-10-16T14:57:37;28.60;99.90
25248;DHT22;13191;47.472;11.214;2022-10-16T15:00:06;28.70;99.90
25248;DHT22;13191;47.472;11.214;2022-10-16T15:02:35;28.60;99.90
25248;DHT22;13191;47.472;11.214;2022-10-16T15:05:07;28.50;99.90
25248;DHT22;13191;47.472;11.214;2022-10-16T15:07:35;28.40;99.90
25248;DHT22;13191;47.472;11.214;2022-10-16T15:10:01;28.30;99.90
25248;DHT22;13191;47.472;11.214;2022-10-16T15:12:26;28.20;99.90
25248;DHT22;13191;47.472;11.214;2022-10-16T15:14:52;28.10;99.90
25248;DHT22;13191;47.472;11.214;2022-10-16T15:17:17;27.90;99.90
25248;DHT22;13191;47.472;11.214;2022-10-16T15:19:43;27.80;99.90
25248;DHT22;13191;47.472;11.214;2022-10-16T15:22:09;27.70;99.90
25248;DHT22;13191;47.472;11.214;2022-10-16T15:24:36;27.60;99.90
25248;DHT22;13191;47.472;11.214;2022-10-16T15:27:01;27.30;99.90
25248;DHT22;13191;47.472;11.214;2022-10-16T15:29:27;27.10;99.90
25248;DHT22;13191;47.472;11.214;2022-10-16T15:31:52;26.90;99.90
25248;DHT22;13191;47.472;11.214;2022-10-16T15:34:18;26.50;99.90
25248;DHT22;13191;47.472;11.214;2022-10-16T15:36:44;26.20;99.90
25248;DHT22;13191;47.472;11.214;2022-10-16T15:41:36;25.80;99.90
25248;DHT22;13191;47.472;11.214;2022-10-16T15:44:01;25.50;99.90
25248;DHT22;13191;47.472;11.214;2022-10-16T15:46:27;25.10;99.90
25248;DHT22;13191;47.472;11.214;2022-10-16T15:48:56;24.70;99.90
25248;DHT22;13191;47.472;11.214;2022-10-16T15:51:21;24.40;99.90
25248;DHT22;13191;47.472;11.214;2022-10-16T15:53:47;24.10;99.90
25248;DHT22;13191;47.472;11.214;2022-10-16T15:56:13;23.90;99.90
25248;DHT22;13191;47.472;11.214;2022-10-16T15:58:39;23.60;99.90
25248;DHT22;13191;47.472;11.214;2022-10-16T16:01:05;23.40;99.90
25248;DHT22;13191;47.472;11.214;2022-10-16T16:03:31;23.10;99.90
25248;DHT22;13191;47.472;11.214;2022-10-16T16:05:57;22.90;99.90
25248;DHT22;13191;47.472;11.214;2022-10-16T16:08:22;22.70;99.90
25248;DHT22;13191;47.472;11.214;2022-10-16T16:11:01;22.50;99.90
25248;DHT22;13191;47.472;11.214;2022-10-16T16:13:26;22.30;99.90
25248;DHT22;13191;47.472;11.214;2022-10-16T16:15:52;22.10;99.90
25248;DHT22;13191;47.472;11.214;2022-10-16T16:18:18;21.80;99.90
25248;DHT22;13191;47.472;11.214;2022-10-16T16:20:43;21.70;99.90
25248;DHT22;13191;47.472;11.214;2022-10-16T16:23:09;21.10;99.90
25248;DHT22;13191;47.472;11.214;2022-10-16T16:25:34;20.90;99.90
25248;DHT22;13191;47.472;11.214;2022-10-16T16:28:00;20.70;99.90
25248;DHT22;13191;47.472;11.214;2022-10-16T16:30:25;20.60;99.90
25248;DHT22;13191;47.472;11.214;2022-10-16T16:32:51;20.40;99.90
25248;DHT22;13191;47.472;11.214;2022-10-16T16:35:17;19.80;99.90
25248;DHT22;13191;47.472;11.214;2022-10-16T16:37:42;19.50;99.90
25248;DHT22;13191;47.472;11.214;2022-10-16T16:40:08;19.30;99.90
25248;DHT22;13191;47.472;11.214;2022-10-16T16:42:33;18.80;99.90
25248;DHT22;13191;47.472;11.214;2022-10-16T16:44:59;18.50;99.90
25248;DHT22;13191;47.472;11.214;2022-10-16T16:47:24;18.40;99.90
25248;DHT22;13191;47.472;11.214;2022-10-16T16:49:50;18.40;99.90